Time;durP1;ratioP1;P1;durP2;ratioP2;P2;SDS_P1;SDS_P2;PMS_P1;PMS_P2;Temp;Humidity;BMP_temperature;BMP_pressure;BME280_temperature;BME280_humidity;BME280_pressure;Samples;Min_cycle;Max_cycle;Signal;HPM_P1;HPM_P2
2021/07/17 00:01:37;;;;;;;3.65;3.10;;;22.90;99.90;;;;;;4884102;29;20408;-78
2021/07/17 00:04:03;;;;;;;4.17;3.83;;;23.00;99.90;;;;;;4837980;29;20415;-78
2021/07/17 00:06:29;;;;;;;3.47;3.05;;;22.90;99.90;;;;;;4829344;29;20418;-79
2021/07/17 00:08:56;;;;;;;4.10;3.60;;;22.90;99.90;;;;;;4855791;29;20493;-78
2021/07/17 00:11:21;;;;;;;3.73;3.33;;;22.90;99.90;;;;;;4838668;29;20429;-78
2021/07/17 00:13:47;;;;;;;8.80;4.10;;;22.90;99.90;;;;;;4838165;29;20871;-78
2021/07/17 00:16:14;;;;;;;5.90;3.77;;;22.90;99.90;;;;;;4844491;29;20467;-78
2021/07/17 00:18:40;;;;;;;4.38;3.65;;;22.90;99.90;;;;;;4855341;29;20421;-78
2021/07/17 00:21:06;;;;;;;4.03;3.63;;;22.90;99.90;;;;;;4840268;29;20406;-78
2021/07/17 00:23:31;;;;;;;3.25;2.95;;;22.80;99.90;;;;;;4881934;29;20424;-78
2021/07/17 00:25:58;;;;;;;4.25;3.53;;;22.80;99.90;;;;;;4825259;29;20414;-79
2021/07/17 00:28:24;;;;;;;4.18;3.67;;;22.80;99.90;;;;;;4839178;29;20944;-78
2021/07/17 00:30:50;;;;;;;3.45;3.15;;;22.80;99.90;;;;;;4838396;29;20434;-78
2021/07/17 00:33:15;;;;;;;3.50;3.20;;;22.80;99.90;;;;;;4836061;29;21264;-78
2021/07/17 00:35:41;;;;;;;3.95;3.55;;;22.70;99.90;;;;;;4848433;29;21280;-79
2021/07/17 00:38:07;;;;;;;3.47;3.17;;;22.70;99.90;;;;;;4827776;29;20492;-78
2021/07/17 00:40:33;;;;;;;4.87;3.87;;;22.70;99.90;;;;;;4847449;29;20408;-79
2021/07/17 00:42:58;;;;;;;3.85;3.55;;;22.70;99.90;;;;;;4830471;29;20470;-79
2021/07/17 00:45:24;;;;;;;5.63;3.30;;;22.70;99.90;;;;;;4855892;29;20515;-78
2021/07/17 00:47:50;;;;;;;3.67;3.37;;;22.60;99.90;;;;;;4828118;29;20411;-79
2021/07/17 00:50:17;;;;;;;4.07;3.78;;;22.60;99.90;;;;;;4876201;29;20441;-78
2021/07/17 00:52:43;;;;;;;5.68;4.13;;;22.60;99.90;;;;;;4852984;29;20397;-78
2021/07/17 00:55:10;;;;;;;5.33;3.83;;;22.60;99.90;;;;;;4837203;29;20478;-78
2021/07/17 00:57:36;;;;;;;3.83;3.53;;;22.60;99.90;;;;;;4876628;29;20420;-78
2021/07/17 01:00:06;;;;;;;3.88;3.58;;;22.60;99.90;;;;;;4836661;29;20402;-78
2021/07/17 01:02:36;;;;;;;3.95;3.60;;;22.60;99.90;;;;;;4856135;29;20506;-78
2021/07/17 01:05:02;;;;;;;3.70;3.40;;;22.60;99.90;;;;;;4838842;29;20431;-78
2021/07/17 01:07:28;;;;;;;3.78;3.47;;;22.60;99.90;;;;;;4881373;29;20424;-78
2021/07/17 01:09:54;;;;;;;4.17;3.80;;;22.60;99.90;;;;;;4834828;29;20797;-78
2021/07/17 01:12:20;;;;;;;3.97;3.27;;;22.60;99.90;;;;;;4881576;29;20965;-79
2021/07/17 01:14:46;;;;;;;3.85;3.53;;;22.60;99.90;;;;;;4868944;29;20412;-79
2021/07/17 01:17:11;;;;;;;3.67;3.38;;;22.70;99.90;;;;;;4893987;29;20409;-78
2021/07/17 01:19:37;;;;;;;5.60;3.92;;;22.70;99.90;;;;;;4865552;29;20432;-78
2021/07/17 01:22:03;;;;;;;4.73;3.57;;;22.60;99.90;;;;;;4841559;29;20398;-78
2021/07/17 01:24:28;;;;;;;4.13;3.72;;;22.70;99.90;;;;;;4879970;29;21127;-78
2021/07/17 01:26:54;;;;;;;5.73;4.13;;;22.60;99.90;;;;;;4837400;29;20473;-78
2021/07/17 01:29:20;;;;;;;6.80;4.00;;;22.60;99.90;;;;;;4886679;29;20445;-78
2021/07/17 01:31:45;;;;;;;5.28;3.60;;;22.50;99.90;;;;;;4871179;29;20441;-78
2021/07/17 01:34:11;;;;;;;3.97;3.55;;;22.50;99.90;;;;;;4871728;29;20429;-78
2021/07/17 01:36:37;;;;;;;4.73;3.80;;;22.50;99.90;;;;;;4872582;29;22127;-78
2021/07/17 01:39:04;;;;;;;5.20;4.18;;;22.50;99.90;;;;;;4859077;29;20462;-78
2021/07/17 01:41:30;;;;;;;4.18;3.78;;;22.60;99.90;;;;;;4833129;29;20434;-78
2021/07/17 01:43:57;;;;;;;4.68;4.28;;;22.60;99.90;;;;;;4841269;29;20445;-78
2021/07/17 01:46:23;;;;;;;5.20;4.00;;;22.60;99.90;;;;;;4860077;29;20428;-78
2021/07/17 01:48:52;;;;;;;4.17;3.77;;;22.60;99.90;;;;;;4846048;29;20610;-78
2021/07/17 01:51:18;;;;;;;3.70;3.40;;;22.60;99.90;;;;;;4822598;29;20521;-78
2021/07/17 01:53:44;;;;;;;4.20;3.80;;;22.60;99.90;;;;;;4841680;29;20855;-78
2021/07/17 01:56:10;;;;;;;3.95;3.63;;;22.70;99.90;;;;;;4826246;29;20413;-78
2021/07/17 01:58:35;;;;;;;4.25;3.35;;;22.70;99.90;;;;;;4885374;29;20500;-78
2021/07/17 02:01:01;;;;;;;5.00;4.30;;;22.70;99.90;;;;;;4845885;29;20862;-78
2021/07/17 02:03:27;;;;;;;5.93;4.40;;;22.70;99.90;;;;;;4849341;29;20781;-78
2021/07/17 02:05:52;;;;;;;6.47;3.85;;;22.70;99.90;;;;;;4856707;29;20898;-78
2021/07/17 02:08:18;;;;;;;5.10;4.60;;;22.70;99.90;;;;;;4832617;29;20412;-78
2021/07/17 02:10:43;;;;;;;4.50;4.10;;;22.70;99.90;;;;;;4861432;29;20395;-78
2021/07/17 02:13:11;;;;;;;4.73;4.33;;;22.70;99.90;;;;;;4849552;29;20432;-78
2021/07/17 02:15:46;;;;;;;5.03;4.53;;;22.70;99.90;;;;;;4880431;29;20535;-78
2021/07/17 02:18:13;;;;;;;15.23;5.03;;;22.60;99.90;;;;;;4886519;29;20930;-78
2021/07/17 02:20:39;;;;;;;5.77;4.90;;;22.50;99.90;;;;;;4892409;29;20429;-78
2021/07/17 02:23:04;;;;;;;4.90;4.40;;;22.60;99.90;;;;;;4840704;29;20427;-78
2021/07/17 02:25:30;;;;;;;5.13;4.60;;;22.70;99.90;;;;;;4872090;29;20536;-78
2021/07/17 02:27:56;;;;;;;5.85;5.25;;;22.60;99.90;;;;;;4839420;29;20415;-78
2021/07/17 02:30:22;;;;;;;8.95;5.55;;;22.60;99.90;;;;;;4864509;29;20441;-79
2021/07/17 02:32:47;;;;;;;5.95;4.53;;;22.60;99.90;;;;;;4851281;29;20410;-78
2021/07/17 02:35:13;;;;;;;5.33;4.70;;;22.60;99.90;;;;;;4848855;29;20422;-78
2021/07/17 02:37:39;;;;;;;5.65;5.15;;;22.50;99.90;;;;;;4848256;29;20447;-78
2021/07/17 02:40:05;;;;;;;5.85;5.28;;;22.50;99.90;;;;;;4836053;29;21036;-78
2021/07/17 02:42:31;;;;;;;4.85;4.45;;;22.50;99.90;;;;;;4838682;29;20415;-78
2021/07/17 02:44:57;;;;;;;5.18;4.68;;;22.50;99.90;;;;;;4842729;29;20447;-77
2021/07/17 02:47:22;;;;;;;5.68;5.15;;;22.50;99.90;;;;;;4839798;29;20425;-78
2021/07/17 02:49:48;;;;;;;5.20;4.70;;;22.60;99.90;;;;;;4858837;29;20486;-78
2021/07/17 02:52:14;;;;;;;5.43;4.93;;;22.60;99.90;;;;;;4894511;29;20419;-78
2021/07/17 02:54:40;;;;;;;4.20;3.83;;;22.60;99.90;;;;;;4869367;29;20478;-78
2021/07/17 02:57:05;;;;;;;5.50;5.00;;;22.60;99.90;;;;;;4854939;29;21290;-77
2021/07/17 02:59:31;;;;;;;4.32;3.92;;;22.70;99.90;;;;;;4871095;29;20905;-78
2021/07/17 03:01:56;;;;;;;5.47;4.60;;;22.80;99.90;;;;;;4839001;29;20426;-78
2021/07/17 03:04:22;;;;;;;6.80;6.00;;;22.70;99.90;;;;;;4866670;29;20409;-78
2021/07/17 03:06:48;;;;;;;5.77;5.10;;;22.70;99.90;;;;;;4876983;29;20419;-78
2021/07/17 03:09:13;;;;;;;5.55;5.05;;;22.60;99.90;;;;;;4871399;29;20414;-78
2021/07/17 03:11:39;;;;;;;6.50;5.35;;;22.60;99.90;;;;;;4858925;29;20399;-78
2021/07/17 03:14:05;;;;;;;6.17;5.40;;;22.60;99.90;;;;;;4847938;29;20412;-78
2021/07/17 03:16:31;;;;;;;7.27;5.37;;;22.60;99.90;;;;;;4873437;29;20407;-78
2021/07/17 03:18:57;;;;;;;9.38;6.20;;;22.60;99.90;;;;;;4842940;29;20434;-78
2021/07/17 03:21:23;;;;;;;7.88;5.30;;;22.60;99.90;;;;;;4842979;29;20767;-78
2021/07/17 03:23:49;;;;;;;7.63;6.20;;;22.60;99.90;;;;;;4843639;29;20402;-78
2021/07/17 03:26:15;;;;;;;6.47;5.60;;;22.60;99.90;;;;;;4854889;29;21155;-78
2021/07/17 03:28:41;;;;;;;5.55;4.97;;;22.70;99.90;;;;;;4860902;29;20418;-78
2021/07/17 03:31:06;;;;;;;6.85;5.90;;;22.70;99.90;;;;;;4854992;29;20412;-78
2021/07/17 03:33:33;;;;;;;7.90;5.57;;;22.70;99.90;;;;;;4857969;29;20423;-78
2021/07/17 03:35:58;;;;;;;7.22;5.88;;;22.70;99.90;;;;;;4847559;29;21052;-78
2021/07/17 03:38:24;;;;;;;5.93;5.32;;;22.70;99.90;;;;;;4873181;29;20406;-78
2021/07/17 03:40:50;;;;;;;5.70;5.20;;;22.70;99.90;;;;;;4888958;29;20986;-78
2021/07/17 03:43:15;;;;;;;7.32;5.97;;;22.80;99.90;;;;;;4858676;29;20445;-78
2021/07/17 03:45:41;;;;;;;7.40;6.70;;;22.70;99.90;;;;;;4873676;29;20431;-78
2021/07/17 03:48:07;;;;;;;6.37;5.00;;;22.70;99.90;;;;;;4861351;29;20411;-78
2021/07/17 03:50:34;;;;;;;6.73;5.73;;;22.70;99.90;;;;;;4881663;29;20402;-78
2021/07/17 03:52:59;;;;;;;5.57;4.80;;;22.70;99.90;;;;;;4888947;29;20407;-78
2021/07/17 03:55:25;;;;;;;6.15;5.55;;;22.70;99.90;;;;;;4857761;29;20469;-78
2021/07/17 03:57:51;;;;;;;6.05;5.50;;;22.80;99.90;;;;;;4857933;29;20462;-78
2021/07/17 04:00:17;;;;;;;5.23;4.73;;;22.80;99.90;;;;;;4845307;29;21189;-78
2021/07/17 04:02:44;;;;;;;6.43;5.80;;;22.90;99.90;;;;;;4872758;29;20419;-78
2021/07/17 04:05:10;;;;;;;6.68;6.05;;;22.90;99.90;;;;;;4858449;29;20446;-78
2021/07/17 04:07:36;;;;;;;11.63;6.63;;;22.90;99.90;;;;;;4871991;29;20410;-78
2021/07/17 04:10:03;;;;;;;5.72;5.05;;;22.90;99.90;;;;;;4852989;29;20470;-78
2021/07/17 04:12:29;;;;;;;7.88;7.07;;;22.90;99.90;;;;;;4857079;29;20482;-78
2021/07/17 04:14:54;;;;;;;7.50;6.60;;;22.90;99.90;;;;;;4857906;29;20419;-79
2021/07/17 04:17:20;;;;;;;7.30;6.27;;;22.90;99.90;;;;;;4857116;29;20401;-78
2021/07/17 04:19:46;;;;;;;6.65;5.93;;;22.90;99.90;;;;;;4841866;29;20902;-78
2021/07/17 04:22:11;;;;;;;7.70;6.60;;;22.90;99.90;;;;;;4874121;29;20422;-78
2021/07/17 04:24:37;;;;;;;5.90;5.30;;;22.90;99.90;;;;;;4872894;29;20408;-78
2021/07/17 04:27:03;;;;;;;8.60;7.60;;;22.90;99.90;;;;;;4887936;29;20414;-78
2021/07/17 04:29:28;;;;;;;6.00;5.50;;;23.00;99.90;;;;;;4863109;29;20410;-78
2021/07/17 04:31:54;;;;;;;6.37;5.77;;;23.00;99.90;;;;;;4889523;29;20419;-79
2021/07/17 04:34:20;;;;;;;8.48;7.65;;;23.00;99.90;;;;;;4843505;29;20484;-78
2021/07/17 04:36:46;;;;;;;9.73;7.20;;;23.00;99.90;;;;;;4861187;29;20826;-78
2021/07/17 04:39:12;;;;;;;8.43;7.53;;;23.00;99.90;;;;;;4845828;29;20443;-79
2021/07/17 04:41:37;;;;;;;9.43;8.03;;;22.90;99.90;;;;;;4891952;29;20451;-79
2021/07/17 04:44:03;;;;;;;8.23;7.43;;;22.90;99.90;;;;;;4877122;29;20743;-78
2021/07/17 04:46:29;;;;;;;11.02;9.82;;;22.90;99.90;;;;;;4864667;29;20796;-77
2021/07/17 04:48:54;;;;;;;7.88;7.15;;;22.90;99.90;;;;;;4855113;29;20418;-78
2021/07/17 04:51:20;;;;;;;8.33;7.23;;;22.90;99.90;;;;;;4857270;29;20415;-78
2021/07/17 04:53:46;;;;;;;9.25;8.30;;;22.90;99.90;;;;;;4860539;29;20411;-79
2021/07/17 04:56:11;;;;;;;9.85;8.20;;;23.00;99.90;;;;;;4861899;29;20441;-78
2021/07/17 04:58:37;;;;;;;8.70;7.80;;;23.00;99.90;;;;;;4845104;29;20433;-78
2021/07/17 05:01:03;;;;;;;9.65;7.60;;;23.00;99.90;;;;;;4874606;29;20935;-79
2021/07/17 05:03:28;;;;;;;8.35;7.45;;;23.00;99.90;;;;;;4876725;29;20976;-78
2021/07/17 05:05:54;;;;;;;8.80;8.00;;;23.10;99.90;;;;;;4844833;29;20422;-78
2021/07/17 05:08:20;;;;;;;7.00;6.20;;;23.00;99.90;;;;;;4862786;29;20793;-79
2021/07/17 05:10:45;;;;;;;10.10;7.75;;;23.00;99.90;;;;;;4880691;29;21291;-78
2021/07/17 05:13:14;;;;;;;10.55;8.90;;;23.10;99.90;;;;;;4876160;29;21157;-78
2021/07/17 05:15:40;;;;;;;11.38;8.40;;;23.10;99.90;;;;;;4883820;29;20416;-78
2021/07/17 05:18:06;;;;;;;7.32;6.70;;;23.00;99.90;;;;;;4859454;29;20834;-78
2021/07/17 05:20:32;;;;;;;8.20;7.40;;;23.00;99.90;;;;;;4878925;29;21057;-78
2021/07/17 05:22:58;;;;;;;8.48;7.68;;;23.00;99.90;;;;;;4876479;29;20768;-78
2021/07/17 05:25:24;;;;;;;9.05;7.25;;;23.00;99.90;;;;;;4875519;29;20419;-78
2021/07/17 05:27:49;;;;;;;7.57;6.83;;;23.00;99.90;;;;;;4860264;29;20414;-79
2021/07/17 05:30:15;;;;;;;12.20;8.77;;;23.00;99.90;;;;;;4889251;29;20404;-78
2021/07/17 05:32:41;;;;;;;8.23;7.40;;;23.00;99.90;;;;;;4865367;29;20415;-77
2021/07/17 05:35:06;;;;;;;7.23;6.53;;;23.00;99.90;;;;;;4860429;29;20422;-78
2021/07/17 05:37:32;;;;;;;6.43;5.82;;;23.00;99.90;;;;;;4847812;29;20419;-79
2021/07/17 05:39:58;;;;;;;8.23;7.43;;;23.00;99.90;;;;;;4890382;29;20407;-78
2021/07/17 05:42:24;;;;;;;10.23;8.93;;;23.10;99.90;;;;;;4891438;29;20407;-78
2021/07/17 05:44:49;;;;;;;7.47;6.88;;;23.00;99.90;;;;;;4874348;29;20430;-79
2021/07/17 05:47:15;;;;;;;9.32;8.43;;;23.00;99.90;;;;;;4855995;29;20409;-80
2021/07/17 05:49:41;;;;;;;9.63;8.57;;;23.10;99.90;;;;;;4867256;29;20405;-79
2021/07/17 05:52:07;;;;;;;9.00;8.10;;;23.00;99.90;;;;;;4834772;29;20837;-78
2021/07/17 05:54:33;;;;;;;9.48;8.27;;;23.10;99.90;;;;;;4875846;29;20470;-78
2021/07/17 05:56:58;;;;;;;8.07;7.28;;;23.20;99.90;;;;;;4874835;29;20960;-80
2021/07/17 05:59:26;;;;;;;10.10;9.00;;;23.30;99.90;;;;;;4864372;29;20408;-78
2021/07/17 06:01:52;;;;;;;10.77;9.47;;;23.40;99.90;;;;;;4881548;29;20399;-78
2021/07/17 06:04:17;;;;;;;8.80;7.47;;;23.30;99.90;;;;;;4836457;29;20403;-78
2021/07/17 06:06:43;;;;;;;8.95;8.05;;;23.20;99.90;;;;;;4879008;29;20493;-78
2021/07/17 06:09:09;;;;;;;11.10;8.00;;;23.30;99.90;;;;;;4845364;29;20401;-79
2021/07/17 06:11:34;;;;;;;8.70;7.80;;;23.30;99.90;;;;;;4867514;29;20407;-79
2021/07/17 06:14:00;;;;;;;7.82;7.13;;;23.40;99.90;;;;;;4886025;29;20407;-80
2021/07/17 06:16:25;;;;;;;9.03;8.20;;;23.30;99.90;;;;;;4876582;29;20401;-79
2021/07/17 06:18:51;;;;;;;8.03;7.33;;;23.20;99.90;;;;;;4866479;29;20417;-80
2021/07/17 06:21:17;;;;;;;8.02;7.22;;;23.30;99.90;;;;;;4861804;29;20486;-80
2021/07/17 06:23:43;;;;;;;8.75;7.85;;;23.30;99.90;;;;;;4860887;29;20426;-80
2021/07/17 06:26:08;;;;;;;13.40;8.13;;;23.30;99.90;;;;;;4861046;29;20864;-80
2021/07/17 06:28:34;;;;;;;8.40;7.60;;;23.40;99.90;;;;;;4860090;29;20413;-79
2021/07/17 06:30:59;;;;;;;7.50;6.70;;;23.40;99.90;;;;;;4844641;29;20435;-79
2021/07/17 06:33:25;;;;;;;7.77;6.53;;;23.40;99.90;;;;;;4880482;29;20409;-77
2021/07/17 06:35:51;;;;;;;8.02;7.25;;;23.50;99.90;;;;;;4885008;29;20780;-78
2021/07/17 06:38:16;;;;;;;8.27;7.47;;;23.70;99.90;;;;;;4875729;29;20415;-79
2021/07/17 06:40:42;;;;;;;7.63;6.83;;;23.70;99.90;;;;;;4887073;29;20425;-79
2021/07/17 06:43:08;;;;;;;8.43;7.63;;;23.70;99.90;;;;;;4859394;29;20431;-79
2021/07/17 06:45:35;;;;;;;10.23;9.23;;;23.80;99.90;;;;;;4890341;29;20790;-79
2021/07/17 06:48:00;;;;;;;8.40;7.60;;;23.90;99.90;;;;;;4871779;29;20417;-78
2021/07/17 06:50:32;;;;;;;8.30;7.50;;;23.90;99.90;;;;;;4874817;29;20428;-80
2021/07/17 06:52:57;;;;;;;7.40;6.47;;;24.10;99.90;;;;;;4862293;29;20407;-80
2021/07/17 06:55:23;;;;;;;7.47;6.78;;;24.10;99.90;;;;;;4884309;29;20436;-81
2021/07/17 06:57:49;;;;;;;7.93;6.77;;;24.20;99.90;;;;;;4848927;29;20496;-81
2021/07/17 07:00:16;;;;;;;7.68;7.00;;;24.30;99.90;;;;;;4861614;29;20408;-81
2021/07/17 07:02:42;;;;;;;7.50;6.80;;;24.30;99.90;;;;;;4901812;29;20805;-82
2021/07/17 07:05:09;;;;;;;7.90;7.20;;;24.30;99.90;;;;;;4879732;29;20429;-82
2021/07/17 07:07:55;;;;;;;10.00;7.13;;;24.20;99.90;;;;;;4870349;29;20468;-82
2021/07/17 07:10:26;;;;;;;7.07;6.43;;;24.30;99.90;;;;;;4866729;29;20429;-82
2021/07/17 07:12:58;;;;;;;8.63;7.70;;;24.20;99.90;;;;;;4861833;29;20498;-81
2021/07/17 07:15:43;;;;;;;8.48;7.50;;;24.30;99.90;;;;;;4879414;29;20419;-81
2021/07/17 07:18:16;;;;;;;6.45;5.95;;;24.30;99.90;;;;;;4839287;29;20427;-81
2021/07/17 07:21:01;;;;;;;8.70;7.85;;;24.70;99.90;;;;;;4863968;29;20435;-81
2021/07/17 07:23:52;;;;;;;7.47;6.78;;;24.70;99.90;;;;;;4854819;29;20459;-81
2021/07/17 07:26:42;;;;;;;7.38;6.68;;;25.00;99.90;;;;;;4874235;29;20458;-82
2021/07/17 07:29:09;;;;;;;5.88;5.40;;;25.30;99.90;;;;;;4842617;29;20434;-82
2021/07/17 07:31:43;;;;;;;6.55;5.95;;;25.30;99.90;;;;;;4868620;29;20430;-81
2021/07/17 07:34:13;;;;;;;8.40;6.57;;;25.70;99.90;;;;;;4894366;29;20414;-81
2021/07/17 07:36:53;;;;;;;6.43;5.82;;;25.80;99.90;;;;;;4871292;29;20454;-81
2021/07/17 07:40:03;;;;;;;8.20;7.40;;;25.60;99.90;;;;;;4876829;29;20501;-82
2021/07/17 07:46:00;;;;;;;6.70;5.53;;;26.00;99.90;;;;;;4838150;29;20489;-82
2021/07/17 07:48:55;;;;;;;6.80;5.75;;;25.90;99.90;;;;;;4890942;29;20417;-82
2021/07/17 07:51:51;;;;;;;5.50;4.95;;;26.00;99.90;;;;;;4874656;29;20787;-82
2021/07/17 07:54:35;;;;;;;5.25;4.75;;;25.90;99.90;;;;;;4849267;29;20493;-83
2021/07/17 07:57:53;;;;;;;5.30;4.80;;;26.10;99.90;;;;;;4854650;29;20429;-82
2021/07/17 08:01:34;;;;;;;8.80;5.53;;;26.10;99.90;;;;;;4843918;29;20470;-81
2021/07/17 08:08:13;;;;;;;6.35;5.28;;;26.20;99.90;;;;;;4866835;29;20434;-81
2021/07/17 08:10:46;;;;;;;6.15;4.57;;;25.90;99.90;;;;;;4866378;29;20426;-81
2021/07/17 08:13:46;;;;;;;7.75;5.30;;;25.90;99.90;;;;;;4856924;28;20398;-82
2021/07/17 08:16:51;;;;;;;5.53;4.97;;;25.90;99.90;;;;;;4841200;29;20419;-82
2021/07/17 08:19:17;;;;;;;5.72;4.88;;;25.90;99.90;;;;;;4899183;29;20412;-81
2021/07/17 08:21:43;;;;;;;5.53;5.00;;;26.20;99.90;;;;;;4877700;29;20406;-80
2021/07/17 08:24:09;;;;;;;5.93;5.32;;;26.40;99.90;;;;;;4870422;29;20411;-81
2021/07/17 08:26:35;;;;;;;4.70;4.00;;;26.60;99.90;;;;;;4878494;29;20442;-81
2021/07/17 08:29:01;;;;;;;5.50;5.00;;;26.70;99.90;;;;;;4861196;29;20411;-82
2021/07/17 08:31:27;;;;;;;5.85;4.68;;;26.70;99.90;;;;;;4901128;29;20415;-80
2021/07/17 08:33:53;;;;;;;5.27;4.73;;;26.90;99.90;;;;;;4870916;29;20946;-80
2021/07/17 08:36:18;;;;;;;4.47;4.10;;;26.90;99.90;;;;;;4840048;29;21062;-80
2021/07/17 08:38:44;;;;;;;5.67;4.10;;;26.80;99.90;;;;;;4888186;29;20769;-80
2021/07/17 08:41:10;;;;;;;7.03;4.60;;;27.00;99.90;;;;;;4853246;29;20503;-80
2021/07/17 08:43:36;;;;;;;4.73;4.33;;;26.90;99.90;;;;;;4860554;29;20437;-80
2021/07/17 08:46:02;;;;;;;3.90;3.60;;;27.00;99.90;;;;;;4853277;29;20418;-79
2021/07/17 08:48:27;;;;;;;4.80;4.25;;;27.10;99.90;;;;;;4887905;29;20418;-80
2021/07/17 08:50:53;;;;;;;5.57;4.17;;;27.10;99.90;;;;;;4878946;29;20462;-80
2021/07/17 08:53:18;;;;;;;5.30;4.80;;;27.30;99.90;;;;;;4874359;29;20427;-80
2021/07/17 08:55:44;;;;;;;4.73;4.20;;;27.50;99.90;;;;;;4858661;29;20403;-81
2021/07/17 08:58:10;;;;;;;5.50;4.78;;;27.70;99.90;;;;;;4889001;29;20894;-80
2021/07/17 09:00:37;;;;;;;4.93;4.43;;;27.70;99.90;;;;;;4876187;29;20405;-80
2021/07/17 09:03:05;;;;;;;6.38;4.05;;;27.80;99.90;;;;;;4893585;29;20440;-80
2021/07/17 09:05:34;;;;;;;4.70;4.30;;;28.10;99.90;;;;;;4885938;29;20972;-81
2021/07/17 09:08:00;;;;;;;5.65;4.43;;;28.30;99.90;;;;;;4879673;29;20470;-81
2021/07/17 09:10:33;;;;;;;4.20;3.87;;;28.20;99.90;;;;;;4862496;29;20412;-80
2021/07/17 09:13:19;;;;;;;5.13;4.27;;;28.30;99.90;;;;;;4866093;29;20426;-80
2021/07/17 09:15:48;;;;;;;8.20;4.45;;;28.20;99.90;;;;;;4883218;29;20436;-80
2021/07/17 09:18:34;;;;;;;4.50;4.10;;;27.90;99.90;;;;;;4891075;29;20422;-79
2021/07/17 09:21:17;;;;;;;4.97;4.47;;;27.90;99.90;;;;;;4862845;29;20505;-81
2021/07/17 09:23:53;;;;;;;5.88;4.50;;;28.00;99.90;;;;;;4891692;29;20427;-80
2021/07/17 09:26:31;;;;;;;4.57;4.18;;;27.70;99.90;;;;;;4850994;29;20918;-80
2021/07/17 09:28:56;;;;;;;5.47;4.45;;;27.80;99.90;;;;;;4866990;29;20422;-80
2021/07/17 09:31:24;;;;;;;4.85;4.45;;;27.70;99.90;;;;;;4885890;29;20405;-81
2021/07/17 09:34:46;;;;;;;8.23;4.50;;;27.90;99.90;;;;;;4909699;29;20412;-81
2021/07/17 09:37:12;;;;;;;4.67;4.03;;;28.00;99.90;;;;;;4906634;29;20448;-81
2021/07/17 09:39:45;;;;;;;4.65;4.25;;;28.00;99.90;;;;;;4863045;29;20449;-80
2021/07/17 09:42:14;;;;;;;4.88;4.43;;;28.00;99.90;;;;;;4858250;29;20423;-80
2021/07/17 09:44:40;;;;;;;4.00;3.70;;;27.80;99.90;;;;;;4863284;29;20408;-80
2021/07/17 09:47:16;;;;;;;5.70;4.90;;;27.80;99.90;;;;;;4840012;29;20421;-80
2021/07/17 09:49:42;;;;;;;5.28;4.35;;;27.70;99.90;;;;;;4859894;29;20399;-80
2021/07/17 09:52:09;;;;;;;5.07;4.57;;;27.40;99.90;;;;;;4838307;29;20498;-79
2021/07/17 09:54:34;;;;;;;7.72;4.85;;;27.30;99.90;;;;;;4848110;29;20498;-80
2021/07/17 09:57:00;;;;;;;5.43;4.60;;;27.10;99.90;;;;;;4845549;29;20494;-80
2021/07/17 09:59:59;;;;;;;5.90;5.03;;;26.90;99.90;;;;;;4881177;29;20409;-83
2021/07/17 10:02:36;;;;;;;6.07;5.40;;;26.60;99.90;;;;;;4906576;28;20447;-82
2021/07/17 10:05:04;;;;;;;6.72;4.57;;;26.40;99.90;;;;;;4896597;29;20406;-81
2021/07/17 10:07:29;;;;;;;5.88;4.75;;;26.20;99.90;;;;;;4901503;28;20371;-81
2021/07/17 10:09:55;;;;;;;4.25;3.85;;;26.10;99.90;;;;;;4852802;29;20397;-81
2021/07/17 10:12:31;;;;;;;4.97;4.50;;;26.10;99.90;;;;;;4863000;29;20415;-79
2021/07/17 10:14:56;;;;;;;4.75;4.35;;;26.20;99.90;;;;;;4855954;29;20482;-79
2021/07/17 10:17:22;;;;;;;7.97;4.53;;;26.40;99.90;;;;;;4858110;29;20921;-80
2021/07/17 10:19:48;;;;;;;5.20;4.70;;;26.70;99.90;;;;;;4864738;29;20964;-79
2021/07/17 10:22:13;;;;;;;5.20;4.72;;;26.90;99.90;;;;;;4876220;29;20962;-79
2021/07/17 10:24:39;;;;;;;4.53;4.13;;;27.10;99.90;;;;;;4875538;29;20415;-79
2021/07/17 10:27:05;;;;;;;5.00;4.53;;;27.30;99.90;;;;;;4861859;29;20522;-80
2021/07/17 10:29:30;;;;;;;5.25;4.75;;;27.40;99.90;;;;;;4875236;29;20417;-79
2021/07/17 10:31:57;;;;;;;4.60;4.20;;;27.40;99.90;;;;;;4876779;29;20986;-79
2021/07/17 10:34:23;;;;;;;5.00;4.60;;;27.30;99.90;;;;;;4857877;29;20409;-79
2021/07/17 10:36:53;;;;;;;5.50;5.00;;;27.00;99.90;;;;;;4857752;29;20514;-79
2021/07/17 10:39:26;;;;;;;5.05;4.55;;;26.50;99.90;;;;;;4888586;29;20461;-79
2021/07/17 10:41:52;;;;;;;4.38;3.92;;;26.40;99.90;;;;;;4889280;29;20405;-79
2021/07/17 10:44:36;;;;;;;6.63;4.38;;;26.50;99.90;;;;;;4866862;29;20775;-79
2021/07/17 10:47:07;;;;;;;5.13;4.55;;;26.70;99.90;;;;;;4866414;29;20923;-79
2021/07/17 10:49:41;;;;;;;5.88;5.25;;;27.00;99.90;;;;;;4849015;29;20454;-79
2021/07/17 10:52:07;;;;;;;6.18;5.57;;;27.30;99.90;;;;;;4872111;29;20413;-79
2021/07/17 10:54:33;;;;;;;4.68;4.28;;;27.40;99.90;;;;;;4874254;29;20407;-79
2021/07/17 10:56:59;;;;;;;5.97;5.32;;;27.60;99.90;;;;;;4859750;29;20445;-79
2021/07/17 10:59:24;;;;;;;6.03;4.80;;;27.60;99.90;;;;;;4860020;29;21270;-79
2021/07/17 11:01:56;;;;;;;4.90;4.50;;;27.40;99.90;;;;;;4882238;29;20411;-79
2021/07/17 11:04:34;;;;;;;5.35;4.93;;;27.40;99.90;;;;;;4882369;29;21104;-79
2021/07/17 11:07:18;;;;;;;5.30;4.80;;;27.40;99.90;;;;;;4886667;29;20413;-80
2021/07/17 11:10:04;;;;;;;5.93;4.93;;;27.40;99.90;;;;;;4864182;29;20492;-79
2021/07/17 11:12:35;;;;;;;5.50;4.68;;;27.40;99.90;;;;;;4842729;29;20501;-78
2021/07/17 11:15:09;;;;;;;4.97;4.53;;;27.50;99.90;;;;;;4879285;29;20473;-79
2021/07/17 11:17:53;;;;;;;5.43;4.63;;;27.60;99.90;;;;;;4888876;29;20461;-79
2021/07/17 11:20:27;;;;;;;4.75;4.30;;;27.70;99.90;;;;;;4844162;29;20399;-78
2021/07/17 11:23:19;;;;;;;4.93;4.20;;;27.50;99.90;;;;;;4874426;29;20417;-79
2021/07/17 11:25:54;;;;;;;3.88;3.55;;;27.20;99.90;;;;;;4870144;29;20415;-79
2021/07/17 11:28:46;;;;;;;5.63;4.85;;;27.30;99.90;;;;;;4889271;29;20418;-79
2021/07/17 11:31:27;;;;;;;5.82;4.22;;;27.70;99.90;;;;;;4894620;29;20419;-78
2021/07/17 11:34:17;;;;;;;5.75;4.03;;;28.10;99.90;;;;;;4877659;29;20460;-79
2021/07/17 11:36:48;;;;;;;4.38;4.07;;;28.60;99.90;;;;;;4875730;29;20445;-79
2021/07/17 11:39:17;;;;;;;4.13;3.73;;;29.00;99.90;;;;;;4819384;29;20443;-79
2021/07/17 11:41:43;;;;;;;4.35;3.95;;;29.00;99.90;;;;;;4841557;29;20411;-79
2021/07/17 11:44:09;;;;;;;5.00;4.50;;;29.10;99.90;;;;;;4858457;29;20505;-78
2021/07/17 11:46:34;;;;;;;4.35;3.67;;;29.00;99.90;;;;;;4871869;29;20415;-79
2021/07/17 11:49:08;;;;;;;4.65;3.80;;;28.60;99.90;;;;;;4840525;29;20406;-80
2021/07/17 11:51:46;;;;;;;5.07;3.40;;;28.40;99.90;;;;;;4840773;29;20419;-78
2021/07/17 11:54:12;;;;;;;4.68;4.10;;;28.40;99.90;;;;;;4856338;29;20482;-77
2021/07/17 11:56:38;;;;;;;4.47;3.97;;;28.20;99.90;;;;;;4857191;29;20907;-76
2021/07/17 11:59:15;;;;;;;4.03;3.73;;;28.00;99.90;;;;;;4838139;29;20419;-77
2021/07/17 12:02:00;;;;;;;4.32;3.92;;;27.80;99.90;;;;;;4856127;29;20426;-77
2021/07/17 12:04:33;;;;;;;4.03;3.73;;;27.50;99.90;;;;;;4884774;29;20603;-77
2021/07/17 12:07:03;;;;;;;4.13;3.83;;;27.40;99.90;;;;;;4853956;29;20458;-76
2021/07/17 12:09:37;;;;;;;5.20;3.50;;;27.20;99.90;;;;;;4867873;29;20480;-76
2021/07/17 12:12:23;;;;;;;6.30;4.43;;;27.10;99.90;;;;;;4831232;29;20847;-78
2021/07/17 12:14:57;;;;;;;5.10;4.40;;;27.00;99.90;;;;;;4839862;29;20985;-77
2021/07/17 12:17:23;;;;;;;6.20;4.32;;;26.90;99.90;;;;;;4853855;29;20984;-78
2021/07/17 12:20:41;;;;;;;6.10;5.60;;;26.70;99.90;;;;;;4839716;29;20502;-77
2021/07/17 12:23:08;;;;;;;7.15;5.57;;;26.60;99.90;;;;;;4761996;29;20462;-78
2021/07/17 12:25:34;;;;;;;7.45;5.10;;;26.50;99.90;;;;;;4790961;29;20433;-77
2021/07/17 12:28:29;;;;;;;6.57;4.70;;;26.60;99.90;;;;;;4826656;29;20993;-78
2021/07/17 12:30:56;;;;;;;5.28;4.82;;;26.70;99.90;;;;;;4849603;29;20422;-77
2021/07/17 12:33:32;;;;;;;4.80;4.40;;;26.50;99.90;;;;;;4852893;29;20498;-78
2021/07/17 12:36:12;;;;;;;5.57;5.00;;;26.40;99.90;;;;;;4838202;29;20442;-76
2021/07/17 12:38:48;;;;;;;7.60;4.70;;;26.30;99.90;;;;;;4882517;29;20423;-77
2021/07/17 12:41:18;;;;;;;5.22;4.60;;;26.30;99.90;;;;;;4839511;29;20430;-78
2021/07/17 12:43:45;;;;;;;6.78;4.20;;;26.20;99.90;;;;;;4837183;29;20486;-78
2021/07/17 12:46:16;;;;;;;5.03;4.53;;;26.20;99.90;;;;;;4868681;29;20422;-77
2021/07/17 12:49:02;;;;;;;4.70;4.30;;;26.20;99.90;;;;;;4839812;29;20899;-78
2021/07/17 12:51:35;;;;;;;5.13;4.65;;;26.20;99.90;;;;;;4868873;29;20931;-77
2021/07/17 12:54:02;;;;;;;4.85;4.35;;;26.10;99.90;;;;;;4841373;29;20411;-77
2021/07/17 12:56:50;;;;;;;4.93;4.50;;;26.00;99.90;;;;;;4873388;29;20423;-78
2021/07/17 12:59:17;;;;;;;4.45;4.05;;;26.10;99.90;;;;;;4845079;29;20529;-78
2021/07/17 13:01:50;;;;;;;4.65;3.92;;;26.10;99.90;;;;;;4888902;29;20415;-78
2021/07/17 13:04:23;;;;;;;4.53;4.13;;;26.10;99.90;;;;;;4879384;29;20419;-78
2021/07/17 13:07:01;;;;;;;4.38;3.97;;;26.10;99.90;;;;;;4843091;29;20430;-78